createdAt,value
2019-05-15T00:02:02.966Z,60.16
2019-05-15T00:05:10.358Z,60.40
2019-05-15T00:08:18.381Z,60.63
2019-05-15T00:11:28.607Z,60.57
2019-05-15T00:14:34.337Z,61.68
2019-05-15T00:17:40.779Z,60.97
2019-05-15T00:20:49.566Z,63.11
2019-05-15T00:23:55.517Z,62.95
2019-05-15T00:27:01.898Z,62.78
2019-05-15T00:30:08.758Z,63.36
2019-05-15T00:33:15.443Z,64.31
2019-05-15T00:36:21.859Z,64.80
2019-05-15T00:39:28.547Z,65.64
2019-05-15T00:42:34.850Z,65.90
2019-05-15T00:45:44.283Z,66.22
2019-05-15T00:48:49.283Z,65.80
2019-05-15T00:51:56.005Z,65.85
2019-05-15T00:55:02.344Z,64.50
2019-05-15T00:58:09.057Z,64.70
2019-05-15T01:01:15.378Z,65.37
2019-05-15T01:04:21.724Z,65.91
2019-05-15T01:07:28.261Z,65.41
2019-05-15T01:10:35.254Z,66.04
2019-05-15T01:13:41.554Z,66.46
2019-05-15T01:16:48.967Z,66.50
2019-05-15T01:19:55.415Z,66.00
2019-05-15T01:23:01.940Z,65.84
2019-05-15T01:26:08.493Z,67.26
2019-05-15T01:29:18.144Z,65.90
2019-05-15T01:32:23.941Z,66.41
2019-05-15T01:35:30.287Z,66.04
2019-05-15T01:38:38.632Z,65.43
2019-05-15T01:41:49.311Z,66.02
2019-05-15T01:44:54.983Z,66.65
2019-05-15T01:48:01.651Z,66.05
2019-05-15T01:51:09.299Z,66.27
2019-05-15T01:54:18.476Z,67.38
2019-05-15T01:57:23.969Z,66.87
2019-05-15T02:00:30.384Z,67.81
2019-05-15T02:03:38.493Z,68.48
2019-05-15T02:06:48.227Z,67.75
2019-05-15T02:09:54.863Z,66.98
2019-05-15T02:13:01.591Z,67.13
2019-05-15T02:16:08.330Z,67.50
2019-05-15T02:19:15.093Z,68.03
2019-05-15T02:22:21.338Z,68.62
2019-05-15T02:25:28.137Z,67.98
2019-05-15T02:28:34.465Z,67.74
2019-05-15T02:31:40.878Z,65.28
2019-05-15T02:34:50.061Z,65.06
2019-05-15T02:37:55.106Z,64.55
2019-05-15T02:41:01.765Z,64.25
2019-05-15T02:44:10.899Z,64.25
2019-05-15T02:47:19.678Z,63.53
2019-05-15T02:50:24.426Z,63.62
2019-05-15T02:53:30.778Z,64.15
2019-05-15T02:56:39.174Z,64.60
2019-05-15T02:59:45.254Z,64.60
2019-05-15T03:02:51.650Z,63.53
2019-05-15T03:06:00.115Z,64.78
2019-05-15T03:09:09.584Z,64.75
2019-05-15T03:12:14.860Z,65.88
2019-05-15T03:15:22.003Z,65.29
2019-05-15T03:18:29.113Z,67.24
2019-05-15T03:21:38.670Z,66.67
2019-05-15T03:24:43.873Z,65.64
2019-05-15T03:27:50.237Z,67.16
2019-05-15T03:31:22.487Z,67.90
2019-05-15T03:34:04.779Z,68.37
2019-05-15T03:37:12.541Z,66.20
2019-05-15T03:40:19.554Z,66.50
2019-05-15T03:43:28.953Z,66.93
2019-05-15T03:46:34.277Z,65.93
2019-05-15T03:49:40.682Z,66.31
2019-05-15T03:52:49.644Z,67.25
2019-05-15T03:55:58.242Z,67.12
2019-05-15T03:59:03.748Z,65.75
2019-05-15T04:02:10.006Z,66.72
2019-05-15T04:05:17.169Z,66.47
2019-05-15T04:08:24.408Z,61.29
2019-05-15T04:11:30.949Z,61.45
2019-05-15T04:14:39.468Z,60.82
2019-05-15T04:17:45.555Z,60.56
2019-05-15T04:20:51.933Z,59.08
2019-05-15T04:23:58.889Z,59.36
2019-05-15T04:27:07.181Z,60.55
2019-05-15T04:30:13.353Z,60.13
2019-05-15T04:33:20.043Z,60.27
2019-05-15T04:36:29.676Z,60.17
2019-05-15T04:39:36.231Z,59.68
2019-05-15T04:42:42.768Z,58.11
2019-05-15T04:45:49.917Z,58.41
2019-05-15T04:48:59.404Z,58.46
2019-05-15T04:52:04.403Z,57.93
2019-05-15T04:55:10.931Z,57.64
2019-05-15T04:58:21.573Z,57.95
2019-05-15T05:01:29.032Z,58.69
2019-05-15T05:04:38.887Z,58.33
2019-05-15T05:07:50.616Z,58.30
2019-05-15T05:10:59.238Z,57.93
2019-05-15T05:14:08.539Z,58.16
2019-05-15T05:17:14.036Z,58.89
2019-05-15T05:20:21.270Z,58.30
2019-05-15T05:23:28.321Z,58.26
2019-05-15T05:26:38.061Z,57.28
2019-05-15T05:29:43.753Z,57.28
2019-05-15T05:32:50.056Z,56.76
2019-05-15T05:35:58.325Z,57.40
2019-05-15T05:39:09.556Z,56.71
2019-05-15T05:42:15.370Z,56.34
2019-05-15T05:45:21.900Z,56.28
2019-05-15T05:48:29.327Z,56.31
2019-05-15T05:51:38.529Z,56.67
2019-05-15T05:54:44.107Z,55.84
2019-05-15T05:57:50.373Z,55.78
2019-05-15T06:00:58.632Z,55.65
2019-05-15T06:04:05.163Z,54.86
2019-05-15T06:07:14.348Z,54.68
2019-05-15T06:10:19.481Z,55.00
2019-05-15T06:13:29.062Z,54.90
2019-05-15T06:16:38.563Z,55.22
2019-05-15T06:19:44.859Z,54.80
2019-05-15T06:22:51.145Z,54.02
2019-05-15T06:25:59.300Z,54.36
2019-05-15T06:29:05.858Z,52.31
2019-05-15T06:32:12.280Z,52.11
2019-05-15T06:35:19.791Z,52.05
2019-05-15T06:38:30.590Z,51.22
2019-05-15T06:41:34.378Z,50.47
2019-05-15T06:44:40.733Z,50.61
2019-05-15T06:47:48.305Z,50.13
2019-05-15T06:50:54.990Z,50.00
2019-05-15T06:54:01.454Z,51.95
2019-05-15T06:57:09.065Z,51.71
2019-05-15T07:00:15.586Z,51.49
2019-05-15T07:03:25.720Z,50.04
2019-05-15T07:06:29.978Z,50.48
2019-05-15T07:09:38.022Z,51.07
2019-05-15T07:12:50.772Z,50.54
2019-05-15T07:15:55.382Z,51.04
2019-05-15T07:19:02.857Z,51.02
2019-05-15T07:22:09.530Z,50.94
2019-05-15T07:25:18.907Z,50.58
2019-05-15T07:28:25.406Z,51.37
2019-05-15T07:31:32.829Z,51.24
2019-05-15T07:34:39.459Z,50.02
2019-05-15T07:37:47.804Z,50.16
2019-05-15T07:41:00.082Z,50.77
2019-05-15T07:44:02.673Z,48.50
2019-05-15T07:47:09.063Z,47.53
2019-05-15T07:50:19.623Z,48.25
2019-05-15T07:53:25.511Z,48.58
2019-05-15T07:56:32.832Z,47.47
2019-05-15T07:59:39.177Z,48.06
2019-05-15T08:02:47.830Z,46.54
2019-05-15T08:05:59.241Z,46.86
2019-05-15T08:09:01.618Z,45.88
2019-05-15T08:12:08.872Z,46.29
2019-05-15T08:15:18.265Z,44.74
2019-05-15T08:18:24.967Z,45.45
2019-05-15T08:21:31.329Z,45.45
2019-05-15T08:24:39.184Z,44.17
2019-05-15T08:27:48.455Z,44.17
2019-05-15T08:30:55.120Z,42.55
2019-05-15T08:34:12.814Z,42.79
2019-05-15T08:37:09.471Z,40.64
2019-05-15T08:40:17.882Z,41.79
2019-05-15T08:43:24.402Z,42.04
2019-05-15T08:46:30.799Z,40.42
2019-05-15T08:49:40.936Z,40.50
2019-05-15T08:52:45.267Z,40.36
2019-05-15T08:55:51.952Z,40.23
2019-05-15T08:58:58.508Z,40.02
2019-05-15T09:02:04.902Z,39.65
2019-05-15T09:05:11.296Z,39.05
2019-05-15T09:08:19.374Z,38.98
2019-05-15T09:11:28.203Z,39.29
2019-05-15T09:14:34.408Z,38.53
2019-05-15T09:17:40.793Z,39.55
2019-05-15T09:20:49.221Z,39.55
2019-05-15T09:23:55.491Z,39.20
2019-05-15T09:27:01.952Z,42.41
2019-05-15T09:30:10.911Z,41.46
2019-05-15T09:33:20.178Z,40.68
2019-05-15T09:36:25.532Z,41.08
2019-05-15T09:39:32.044Z,40.69
2019-05-15T09:42:39.269Z,38.77
2019-05-15T09:45:46.836Z,37.63
2019-05-15T09:48:54.199Z,37.28
2019-05-15T09:52:00.673Z,40.16
2019-05-15T09:55:08.571Z,39.30
2019-05-15T09:58:19.685Z,38.34
2019-05-15T10:01:28.483Z,38.34
2019-05-15T10:04:34.720Z,36.74
2019-05-15T10:07:40.981Z,36.26
2019-05-15T10:10:49.549Z,37.55
2019-05-15T10:13:58.367Z,38.07
2019-05-15T10:17:04.204Z,39.32
2019-05-15T10:20:10.836Z,35.55
2019-05-15T10:23:19.523Z,37.45
2019-05-15T10:26:28.386Z,36.38
2019-05-15T10:29:34.108Z,37.19
2019-05-15T10:32:40.540Z,34.76
2019-05-15T10:35:47.099Z,33.54
2019-05-15T10:38:53.576Z,34.61
2019-05-15T10:42:00.226Z,33.57
2019-05-15T10:45:08.373Z,35.64
2019-05-15T10:48:18.704Z,31.62
2019-05-15T10:51:24.156Z,33.32
2019-05-15T10:54:30.662Z,33.32
2019-05-15T10:57:42.302Z,32.83
2019-05-15T11:00:49.004Z,32.83
2019-05-15T11:03:54.026Z,30.80
2019-05-15T11:07:00.499Z,30.45
2019-05-15T11:10:08.614Z,27.60
2019-05-15T11:13:15.328Z,28.71
2019-05-15T11:16:21.830Z,31.95
2019-05-15T11:19:35.610Z,31.95
2019-05-15T11:22:42.192Z,31.55
2019-05-15T11:25:48.681Z,29.80
2019-05-15T11:28:55.163Z,29.59
2019-05-15T11:32:03.233Z,30.15
2019-05-15T11:35:11.293Z,30.59
2019-05-15T11:38:19.439Z,29.49
2019-05-15T11:41:29.222Z,32.65
2019-05-15T11:44:34.610Z,29.47
2019-05-15T11:47:41.070Z,28.55
2019-05-15T11:50:47.663Z,29.71
2019-05-15T11:53:54.092Z,29.28
2019-05-15T11:57:00.587Z,29.01
2019-05-15T12:00:15.060Z,28.45
2019-05-15T12:03:18.847Z,29.05
2019-05-15T12:06:25.324Z,28.49
2019-05-15T12:09:31.821Z,28.42
2019-05-15T12:12:38.724Z,29.59
2019-05-15T12:15:48.438Z,27.86
2019-05-15T12:18:54.253Z,27.92
2019-05-15T12:22:00.935Z,26.91
2019-05-15T12:25:09.711Z,26.73
2019-05-15T12:28:16.952Z,26.85
2019-05-15T12:31:24.700Z,26.85
2019-05-15T12:34:31.418Z,26.58
2019-05-15T12:37:59.161Z,26.31
2019-05-15T13:02:41.898Z,25.04
2019-05-15T13:05:48.860Z,25.31
2019-05-15T13:08:59.236Z,25.28
2019-05-15T13:12:04.811Z,25.14
2019-05-15T13:15:12.155Z,25.24
2019-05-15T13:18:18.792Z,24.99
2019-05-15T13:21:25.240Z,27.29
2019-05-15T13:24:31.753Z,25.04
2019-05-15T13:27:38.482Z,26.16
2019-05-15T13:30:45.016Z,24.62
2019-05-15T13:33:51.456Z,24.98
2019-05-15T13:36:59.231Z,24.79
2019-05-15T13:40:06.139Z,24.30
2019-05-15T13:43:12.723Z,24.67
2019-05-15T13:46:20.578Z,24.64
2019-05-15T13:49:28.150Z,24.64
2019-05-15T13:52:34.888Z,25.42
2019-05-15T13:55:42.938Z,25.32
2019-05-15T13:58:49.666Z,24.90
2019-05-15T14:01:59.193Z,24.90
2019-05-15T14:05:09.529Z,24.96
2019-05-15T14:08:17.870Z,24.05
2019-05-15T14:11:24.045Z,24.05
2019-05-15T14:14:30.542Z,24.99
2019-05-15T14:17:37.715Z,26.50
2019-05-15T14:20:44.493Z,24.72
2019-05-15T14:23:50.979Z,24.25
2019-05-15T14:26:59.375Z,24.72
2019-05-15T14:30:08.979Z,25.31
2019-05-15T14:33:15.873Z,24.30
2019-05-15T14:36:22.473Z,24.64
2019-05-15T14:39:29.036Z,24.09
2019-05-15T14:42:35.470Z,24.00
2019-05-15T14:45:42.028Z,25.00
2019-05-15T14:48:49.296Z,24.21
2019-05-15T14:52:05.666Z,24.70
2019-05-15T14:55:04.062Z,24.28
2019-05-15T14:58:10.589Z,25.79
2019-05-15T15:01:18.453Z,24.81
2019-05-15T15:04:25.115Z,25.66
2019-05-15T15:07:31.556Z,25.30
2019-05-15T15:10:38.782Z,24.83
2019-05-15T15:13:45.496Z,24.82
2019-05-15T15:16:52.256Z,25.40
2019-05-15T15:20:00.273Z,25.62
2019-05-15T15:23:08.613Z,25.62
2019-05-15T15:26:15.295Z,25.40
2019-05-15T15:29:21.880Z,25.81
2019-05-15T15:32:28.740Z,26.46
2019-05-15T15:35:38.295Z,26.14
2019-05-15T15:38:44.488Z,27.00
2019-05-15T15:41:50.952Z,26.23
2019-05-15T15:44:58.154Z,27.12
2019-05-15T15:48:04.838Z,26.69
2019-05-15T15:51:11.299Z,26.67
2019-05-15T15:54:18.826Z,26.82
2019-05-15T15:57:25.512Z,27.77
2019-05-15T16:00:32.260Z,26.84
2019-05-15T16:03:38.743Z,27.50
2019-05-15T16:06:48.109Z,26.54
2019-05-15T16:09:53.669Z,27.06
2019-05-15T16:13:00.764Z,26.98
2019-05-15T16:16:08.650Z,28.33
2019-05-15T16:19:15.252Z,27.10
2019-05-15T16:22:21.858Z,27.66
2019-05-15T16:25:28.922Z,27.76
2019-05-15T16:29:03.828Z,27.63
2019-05-15T16:32:10.535Z,27.94
2019-05-15T16:35:18.442Z,27.56
2019-05-15T16:38:25.273Z,27.72
2019-05-15T16:41:32.908Z,28.16
2019-05-15T16:44:39.339Z,28.37
2019-05-15T16:47:47.983Z,28.13
2019-05-15T16:50:54.398Z,27.63
2019-05-15T16:54:00.951Z,28.07
2019-05-15T16:57:09.413Z,28.27
2019-05-15T17:00:18.201Z,28.69
2019-05-15T17:03:24.168Z,28.77
2019-05-15T17:06:30.638Z,29.21
2019-05-15T17:09:38.739Z,28.49
2019-05-15T17:12:45.453Z,28.41
2019-05-15T17:15:52.301Z,29.25
2019-05-15T17:18:58.856Z,29.41
2019-05-15T17:22:05.369Z,29.79
2019-05-15T17:25:11.941Z,29.40
2019-05-15T17:28:18.741Z,29.27
2019-05-15T17:31:25.197Z,30.09
2019-05-15T17:34:31.726Z,30.09
2019-05-15T17:37:38.147Z,30.04
2019-05-15T17:40:45.725Z,29.76
2019-05-15T17:43:52.491Z,30.36
2019-05-15T17:46:59.104Z,30.53
2019-05-15T17:50:08.354Z,30.68
2019-05-15T17:53:18.120Z,30.50
2019-05-15T17:56:24.957Z,30.91
2019-05-15T17:59:31.506Z,31.92
2019-05-15T18:02:38.122Z,31.82
2019-05-15T18:05:44.679Z,31.55
2019-05-15T18:08:51.059Z,31.87
2019-05-15T18:11:58.654Z,31.47
2019-05-15T18:15:05.525Z,31.43
2019-05-15T18:18:12.451Z,31.88
2019-05-15T18:21:19.539Z,32.13
2019-05-15T18:24:26.198Z,32.99
2019-05-15T18:27:32.575Z,33.23
2019-05-15T18:30:39.166Z,33.20
2019-05-15T18:33:53.502Z,33.11
2019-05-15T18:36:53.653Z,33.45
2019-05-15T18:40:05.226Z,34.01
2019-05-15T18:43:10.077Z,34.60
2019-05-15T18:46:18.311Z,34.84
2019-05-15T18:49:24.867Z,34.99
2019-05-15T18:52:31.374Z,35.25
2019-05-15T18:55:38.644Z,35.23
2019-05-15T18:58:45.182Z,35.23
2019-05-15T19:01:54.695Z,34.35
2019-05-15T19:05:01.333Z,35.06
2019-05-15T19:08:09.655Z,35.24
2019-05-15T19:11:18.178Z,35.70
2019-05-15T19:14:24.045Z,35.96
2019-05-15T19:17:30.490Z,36.36
2019-05-15T19:20:48.673Z,36.42
2019-05-15T19:23:51.804Z,36.21
2019-05-15T19:26:58.648Z,36.39
2019-05-15T19:30:05.631Z,36.55
2019-05-15T19:33:12.291Z,36.77
2019-05-15T19:36:18.704Z,36.78
2019-05-15T19:39:25.453Z,36.82
2019-05-15T19:42:31.811Z,37.21
2019-05-15T19:45:38.777Z,37.43
2019-05-15T19:48:48.808Z,37.53
2019-05-15T19:51:59.200Z,38.05
2019-05-15T19:55:08.896Z,38.09
2019-05-15T19:58:15.283Z,38.57
2019-05-15T20:01:22.730Z,38.70
2019-05-15T20:04:29.238Z,39.05
2019-05-15T20:07:35.832Z,39.67
2019-05-15T20:10:47.783Z,39.67
2019-05-15T20:13:53.709Z,40.09
2019-05-15T20:17:00.369Z,40.52
2019-05-15T20:20:08.754Z,40.73
2019-05-15T20:23:18.257Z,40.89
2019-05-15T20:26:25.427Z,41.19
2019-05-15T20:29:31.810Z,41.23
2019-05-15T20:32:41.289Z,41.38
2019-05-15T20:35:48.188Z,42.88
2019-05-15T20:38:54.535Z,42.88
2019-05-15T20:42:01.106Z,42.87
2019-05-15T20:45:11.776Z,43.08
2019-05-15T20:48:18.343Z,43.37
2019-05-15T20:51:24.514Z,43.89
2019-05-15T20:54:31.048Z,44.27
2019-05-15T20:57:40.548Z,44.53
2019-05-15T21:00:45.520Z,44.61
2019-05-15T21:03:51.993Z,45.15
2019-05-15T21:06:58.296Z,45.01
2019-05-15T21:10:05.211Z,45.57
2019-05-15T21:13:11.873Z,45.73
2019-05-15T21:16:18.874Z,46.01
2019-05-15T21:19:25.412Z,46.36
2019-05-15T21:22:33.469Z,46.66
2019-05-15T21:25:40.045Z,47.40
2019-05-15T21:28:48.215Z,47.38
2019-05-15T21:31:58.051Z,47.55
2019-05-15T21:35:03.941Z,47.94
2019-05-15T21:38:11.397Z,48.27
2019-05-15T21:41:18.881Z,48.38
2019-05-15T21:44:25.412Z,48.33
2019-05-15T21:47:31.710Z,48.85
2019-05-15T21:50:39.142Z,49.01
2019-05-15T21:53:47.691Z,49.23
2019-05-15T21:57:06.771Z,49.37
2019-05-15T22:00:02.289Z,49.58
2019-05-15T22:03:10.513Z,49.85
2019-05-15T22:06:18.576Z,49.87
2019-05-15T22:09:25.138Z,49.84
2019-05-15T22:12:31.496Z,50.25
2019-05-15T22:15:38.283Z,50.15
2019-05-15T22:18:44.652Z,51.09
2019-05-15T22:21:51.274Z,51.35
2019-05-15T22:24:57.630Z,51.35
2019-05-15T22:28:04.482Z,52.06
2019-05-15T22:31:11.136Z,52.76
2019-05-15T22:34:18.446Z,52.50
2019-05-15T22:37:24.924Z,52.96
2019-05-15T22:40:31.625Z,53.07
2019-05-15T22:43:39.244Z,53.21
2019-05-15T22:46:45.777Z,53.47
2019-05-15T22:49:52.193Z,53.73
2019-05-15T22:52:59.109Z,53.71
2019-05-15T22:56:05.547Z,55.03
2019-05-15T22:59:12.424Z,54.98
2019-05-15T23:02:18.848Z,54.84
2019-05-15T23:05:31.012Z,54.77
2019-05-15T23:08:33.342Z,54.90
2019-05-15T23:11:39.806Z,55.39
2019-05-15T23:14:48.419Z,55.39
2019-05-15T23:17:54.402Z,55.57
2019-05-15T23:21:00.860Z,56.13
2019-05-15T23:24:08.562Z,55.74
2019-05-15T23:27:15.278Z,56.37
2019-05-15T23:30:22.195Z,56.69
2019-05-15T23:33:28.684Z,56.39
2019-05-15T23:36:37.773Z,56.82
2019-05-15T23:39:43.825Z,56.90
2019-05-15T23:42:50.198Z,57.18
2019-05-15T23:45:58.763Z,57.82
2019-05-15T23:49:04.821Z,58.39
2019-05-15T23:52:11.110Z,57.86
2019-05-15T23:55:18.925Z,58.38
2019-05-15T23:58:25.544Z,58.62
